createdAt,value
2018-08-31T00:01:52.608Z,99974.64
2018-08-31T00:08:40.838Z,99974.68
2018-08-31T00:14:45.459Z,99968.94
2018-08-31T00:20:50.099Z,99962.06
2018-08-31T00:27:11.705Z,99957.70
2018-08-31T00:33:35.026Z,99967.23
2018-08-31T00:42:04.347Z,99970.41
2018-08-31T00:48:10.702Z,99967.34
2018-08-31T00:54:15.350Z,99962.80
2018-08-31T01:00:20.369Z,99963.55
2018-08-31T01:06:24.963Z,99959.86
2018-08-31T01:12:29.649Z,99958.94
2018-08-31T01:21:06.317Z,99961.35
2018-08-31T01:27:11.701Z,99967.31
2018-08-31T01:33:16.616Z,99958.42
2018-08-31T01:39:21.433Z,99958.93
2018-08-31T01:45:26.299Z,99957.08
2018-08-31T01:51:31.141Z,99948.17
2018-08-31T01:57:35.823Z,99946.52
2018-08-31T02:03:41.340Z,99942.11
2018-08-31T02:09:46.638Z,99946.27
2018-08-31T02:15:51.453Z,99951.59
2018-08-31T02:21:56.472Z,99945.34
2018-08-31T02:28:01.151Z,99953.55
2018-08-31T02:34:06.132Z,99952.97
2018-08-31T02:40:11.380Z,99965.69
2018-08-31T02:46:16.825Z,99965.95
2018-08-31T02:52:21.505Z,99977.64
2018-08-31T02:58:26.270Z,99966.04
2018-08-31T03:04:31.057Z,99962.77
2018-08-31T03:10:35.826Z,99966.66
2018-08-31T03:19:14.205Z,99961.28
2018-08-31T03:25:19.113Z,99962.28
2018-08-31T03:31:23.957Z,99965.63
2018-08-31T03:37:28.783Z,99956.59
2018-08-31T03:43:33.570Z,99959.53
2018-08-31T03:49:38.336Z,99951.91
2018-08-31T03:55:43.682Z,99951.55
2018-08-31T04:01:48.669Z,99951.77
2018-08-31T04:07:53.741Z,99959.55
2018-08-31T04:13:58.697Z,99958.92
2018-08-31T04:20:03.420Z,99965.22
2018-08-31T04:26:08.172Z,99966.59
2018-08-31T04:32:14.240Z,99967.66
2018-08-31T04:38:19.001Z,99971.48
2018-08-31T04:44:23.861Z,99966.75
2018-08-31T04:50:28.812Z,99978.66
2018-08-31T04:56:33.540Z,99980.11
2018-08-31T05:02:38.300Z,99992.56
2018-08-31T05:08:43.387Z,99991.50
2018-08-31T05:14:48.330Z,99993.87
2018-08-31T05:20:53.077Z,99991.50
2018-08-31T05:26:57.938Z,99992.64
2018-08-31T05:33:02.700Z,99992.22
2018-08-31T05:39:11.447Z,100000.74
2018-08-31T05:45:16.766Z,100002.41
2018-08-31T05:51:21.456Z,100004.27
2018-08-31T05:57:26.340Z,100012.95
2018-08-31T06:03:31.104Z,100011.58
2018-08-31T06:09:36.143Z,100011.64
2018-08-31T06:15:41.022Z,100014.51
2018-08-31T06:21:46.223Z,100017.38
2018-08-31T06:27:51.462Z,100019.72
2018-08-31T06:33:56.347Z,100020.23
2018-08-31T06:40:01.093Z,100024.69
2018-08-31T06:46:06.056Z,100027.55
2018-08-31T06:52:12.535Z,100031.38
2018-08-31T06:58:17.390Z,100031.23
2018-08-31T07:04:22.179Z,100035.16
2018-08-31T07:10:26.879Z,100039.41
2018-08-31T07:16:31.761Z,100046.66
2018-08-31T07:22:36.570Z,100049.47
2018-08-31T07:28:41.824Z,100056.85
2018-08-31T07:34:46.662Z,100068.00
2018-08-31T07:40:51.428Z,100072.91
2018-08-31T07:46:56.374Z,100066.99
2018-08-31T07:53:01.791Z,100064.92
2018-08-31T07:59:06.825Z,100068.45
2018-08-31T08:05:11.949Z,100064.58
2018-08-31T08:11:16.781Z,100059.89
2018-08-31T08:17:22.146Z,100065.05
2018-08-31T08:23:27.115Z,100067.39
2018-08-31T08:29:32.242Z,100079.62
2018-08-31T08:35:37.289Z,100076.69
2018-08-31T08:41:42.429Z,100067.07
2018-08-31T08:47:47.424Z,100063.67
2018-08-31T08:53:52.081Z,100061.44
2018-08-31T08:59:56.914Z,100061.12
2018-08-31T09:06:01.614Z,100064.53
2018-08-31T09:12:06.639Z,100061.91
2018-08-31T09:18:13.207Z,100068.08
2018-08-31T09:24:18.156Z,100071.28
2018-08-31T09:30:28.249Z,100065.85
2018-08-31T09:36:33.354Z,100055.02
2018-08-31T09:42:38.298Z,100051.14
2018-08-31T09:48:43.570Z,100039.45
2018-08-31T09:54:48.364Z,100031.62
2018-08-31T10:00:55.447Z,100034.59
2018-08-31T10:07:00.433Z,100025.34
2018-08-31T10:13:05.217Z,100021.98
2018-08-31T10:19:11.364Z,100027.53
2018-08-31T10:25:16.551Z,100018.67
2018-08-31T10:31:21.248Z,100009.25
2018-08-31T10:37:26.232Z,100022.75
2018-08-31T10:43:31.149Z,100023.56
2018-08-31T10:49:35.900Z,100014.25
2018-08-31T10:55:41.524Z,100010.41
2018-08-31T11:01:46.630Z,100014.04
2018-08-31T11:07:51.560Z,100012.50
2018-08-31T11:13:56.357Z,100010.62
2018-08-31T11:20:01.453Z,100006.78
2018-08-31T11:26:06.292Z,99994.67
2018-08-31T11:32:12.184Z,99982.97
2018-08-31T11:38:17.929Z,99980.94
2018-08-31T11:44:22.641Z,99967.84
2018-08-31T11:50:27.488Z,99974.59
2018-08-31T11:56:32.404Z,99968.78
2018-08-31T12:02:37.346Z,99969.91
2018-08-31T12:08:43.014Z,99961.61
2018-08-31T12:14:47.858Z,99963.52
2018-08-31T12:20:53.187Z,99961.45
2018-08-31T12:26:58.306Z,99970.69
2018-08-31T12:33:03.060Z,99957.88
2018-08-31T12:39:11.801Z,99962.23
2018-08-31T12:45:17.240Z,99953.69
2018-08-31T12:51:22.061Z,99952.30
2018-08-31T12:57:27.268Z,99956.16
2018-08-31T13:03:32.077Z,99956.41
2018-08-31T13:09:36.836Z,99946.64
2018-08-31T13:15:43.184Z,99946.56
2018-08-31T13:21:48.463Z,99938.63
2018-08-31T13:27:53.682Z,99933.33
2018-08-31T13:33:58.433Z,99931.67
2018-08-31T13:40:03.351Z,99936.09
2018-08-31T13:46:08.581Z,99932.42
2018-08-31T13:52:13.914Z,99931.22
2018-08-31T13:58:18.696Z,99916.77
2018-08-31T14:04:23.417Z,99924.82
2018-08-31T14:10:28.167Z,99926.21
2018-08-31T14:16:35.829Z,99931.86
2018-08-31T14:22:42.935Z,99943.81
2018-08-31T14:28:47.814Z,99942.50
2018-08-31T14:34:52.678Z,99947.45
2018-08-31T14:40:57.447Z,99940.87
2018-08-31T14:47:09.329Z,99943.48
2018-08-31T14:53:15.193Z,99947.19
2018-08-31T14:59:20.217Z,99946.33
2018-08-31T15:05:25.639Z,99933.77
2018-08-31T15:11:30.531Z,99932.10
2018-08-31T15:17:35.838Z,99933.80
2018-08-31T15:23:42.718Z,99932.52
2018-08-31T15:29:47.470Z,99936.77
2018-08-31T15:35:52.628Z,99940.91
2018-08-31T15:41:57.898Z,99935.21
2018-08-31T15:48:02.851Z,99935.80
2018-08-31T15:54:07.629Z,99936.08
2018-08-31T16:00:14.780Z,99934.47
2018-08-31T16:06:19.612Z,99941.56
2018-08-31T16:12:24.358Z,99947.48
2018-08-31T16:18:29.239Z,99945.41
2018-08-31T16:24:34.224Z,99945.11
2018-08-31T16:30:39.081Z,99948.75
2018-08-31T16:36:43.940Z,99947.01
2018-08-31T16:42:49.565Z,99951.75
2018-08-31T16:48:54.383Z,99957.98
2018-08-31T16:54:59.617Z,99967.06
2018-08-31T17:01:04.475Z,99968.47
2018-08-31T17:07:09.444Z,99976.35
2018-08-31T17:13:15.198Z,99982.86
2018-08-31T17:19:20.434Z,99975.43
2018-08-31T17:25:26.059Z,99975.99
2018-08-31T17:31:35.923Z,99979.50
2018-08-31T17:37:41.404Z,99979.58
2018-08-31T17:43:46.501Z,99995.52
2018-08-31T17:49:51.588Z,100001.82
2018-08-31T17:55:56.562Z,100004.46
2018-08-31T18:02:01.317Z,100000.25
2018-08-31T18:08:06.154Z,100008.70
2018-08-31T18:14:12.001Z,100017.95
2018-08-31T18:20:16.779Z,100027.05
2018-08-31T18:26:21.806Z,100033.87
2018-08-31T18:32:26.547Z,100037.17
2018-08-31T18:38:31.409Z,100044.52
2018-08-31T18:44:36.387Z,100050.25
2018-08-31T18:50:41.786Z,100061.86
2018-08-31T18:56:47.173Z,100063.28
2018-08-31T19:02:51.925Z,100069.09
2018-08-31T19:08:57.398Z,100076.21
2018-08-31T19:15:02.473Z,100077.59
2018-08-31T19:21:07.178Z,100086.39
2018-08-31T19:27:14.180Z,100084.94
2018-08-31T19:33:19.328Z,100093.28
2018-08-31T19:39:24.192Z,100094.17
2018-08-31T19:45:29.323Z,100093.91
2018-08-31T19:51:34.080Z,100093.91
2018-08-31T19:57:38.960Z,100096.50
2018-08-31T20:03:44.640Z,100103.27
2018-08-31T20:09:49.666Z,100107.84
2018-08-31T20:15:54.399Z,100115.63
2018-08-31T20:21:59.136Z,100121.98
2018-08-31T20:28:04.252Z,100125.11
2018-08-31T20:34:09.906Z,100129.87
2018-08-31T20:40:15.618Z,100136.70
2018-08-31T20:46:20.524Z,100141.14
2018-08-31T20:52:25.482Z,100149.75
2018-08-31T20:58:30.319Z,100162.59
2018-08-31T21:04:35.270Z,100161.61
2018-08-31T21:10:40.783Z,100160.40
2018-08-31T21:16:46.376Z,100163.21
2018-08-31T21:22:51.251Z,100166.43
2018-08-31T21:28:56.054Z,100165.97
2018-08-31T21:35:01.188Z,100171.29
2018-08-31T21:41:06.277Z,100175.54
2018-08-31T21:47:12.398Z,100183.89
2018-08-31T21:53:17.150Z,100186.06
2018-08-31T21:59:22.031Z,100179.23
2018-08-31T22:05:26.911Z,100187.38
2018-08-31T22:11:31.556Z,100188.11
2018-08-31T22:17:36.461Z,100193.79
2018-08-31T22:23:42.553Z,100191.92
2018-08-31T22:29:47.852Z,100195.00
2018-08-31T22:35:52.972Z,100191.22
2018-08-31T22:41:57.898Z,100193.87
2018-08-31T22:48:02.630Z,100189.31
2018-08-31T22:54:07.583Z,100189.31
2018-08-31T23:00:12.863Z,100181.45
2018-08-31T23:06:17.730Z,100185.91
2018-08-31T23:12:22.486Z,100181.20
2018-08-31T23:18:27.194Z,100178.88
2018-08-31T23:24:31.900Z,100188.40
2018-08-31T23:30:36.705Z,100187.73
2018-08-31T23:36:42.572Z,100182.35
2018-08-31T23:42:47.428Z,100184.06
2018-08-31T23:48:52.159Z,100182.34
2018-08-31T23:54:56.876Z,100192.72
